Time;durP1;ratioP1;P1;durP2;ratioP2;P2;SDS_P1;SDS_P2;PMS_P1;PMS_P2;Temp;Humidity;BMP_temperature;BMP_pressure;BME280_temperature;BME280_humidity;BME280_pressure;Samples;Min_cycle;Max_cycle;Signal;HPM_P1;HPM_P2
2022/04/21 00:00:19;;;;;;;9.52;7.93;;;8.40;99.90;;;;;;5054288;28;20033;-75
2022/04/21 00:02:45;;;;;;;10.90;7.15;;;8.40;99.90;;;;;;5054157;28;20048;-75
2022/04/21 00:05:12;;;;;;;10.40;7.57;;;8.40;99.90;;;;;;5054562;28;20125;-76
2022/04/21 00:07:38;;;;;;;8.82;7.47;;;8.40;99.90;;;;;;5054074;28;20052;-76
2022/04/21 00:10:05;;;;;;;12.48;7.30;;;8.40;99.90;;;;;;5036751;28;20044;-76
2022/04/21 00:12:31;;;;;;;11.27;8.35;;;8.40;99.90;;;;;;5054006;28;20044;-78
2022/04/21 00:14:57;;;;;;;9.00;7.78;;;8.40;99.90;;;;;;5054360;28;20384;-76
2022/04/21 00:17:22;;;;;;;9.90;8.25;;;8.40;99.90;;;;;;5036650;28;20091;-75
2022/04/21 00:19:48;;;;;;;12.02;8.93;;;8.40;99.90;;;;;;5054281;28;20032;-75
2022/04/21 00:24:58;;;;;;;18.50;10.63;;;8.40;99.90;;;;;;5057666;28;20041;-75
2022/04/21 00:27:23;;;;;;;11.57;8.93;;;8.40;99.90;;;;;;5057667;28;20037;-75
2022/04/21 00:29:49;;;;;;;15.52;10.48;;;8.40;99.90;;;;;;5057889;28;20060;-75
2022/04/21 00:32:14;;;;;;;14.43;11.02;;;8.40;99.90;;;;;;5037075;28;20045;-75
2022/04/21 00:34:40;;;;;;;12.32;9.80;;;8.40;99.90;;;;;;5038123;28;20037;-73
2022/04/21 00:37:05;;;;;;;15.85;10.63;;;8.30;99.90;;;;;;5037939;28;20030;-75
2022/04/21 00:39:31;;;;;;;14.60;11.70;;;8.30;99.90;;;;;;5037253;28;20075;-75
2022/04/21 00:41:58;;;;;;;13.85;11.10;;;8.30;99.90;;;;;;5040786;28;20650;-75
2022/04/21 00:44:24;;;;;;;18.45;11.85;;;8.30;99.90;;;;;;5039805;28;20324;-75
2022/04/21 00:46:50;;;;;;;17.92;12.32;;;8.30;99.90;;;;;;5040447;28;20106;-74
2022/04/21 00:49:19;;;;;;;15.02;12.32;;;8.30;99.90;;;;;;5057642;28;20462;-74
2022/04/21 00:51:45;;;;;;;16.27;12.25;;;8.30;99.90;;;;;;5057203;28;20048;-75
2022/04/21 00:54:11;;;;;;;16.65;12.38;;;8.30;99.90;;;;;;5039687;28;20375;-76
2022/04/21 00:56:38;;;;;;;22.02;13.18;;;8.30;99.90;;;;;;5057331;28;20036;-74
2022/04/21 00:59:04;;;;;;;16.33;12.95;;;8.20;99.90;;;;;;5057277;28;20037;-75
2022/04/21 01:04:15;;;;;;;;;;;8.20;99.90;;;;;;5020385;28;20049;-73
2022/04/21 01:06:41;;;;;;;17.77;12.98;;;8.10;99.90;;;;;;5020564;28;19921;-75
2022/04/21 01:09:08;;;;;;;19.75;12.90;;;8.10;99.90;;;;;;5057088;28;20059;-75
2022/04/21 01:11:34;;;;;;;17.95;12.82;;;8.10;99.90;;;;;;5057087;28;20052;-77
2022/04/21 01:14:00;;;;;;;19.58;13.18;;;8.10;99.90;;;;;;5039212;28;20055;-75
2022/04/21 01:16:25;;;;;;;18.95;13.77;;;8.10;99.90;;;;;;5056697;28;20041;-74
2022/04/21 01:18:52;;;;;;;17.75;13.18;;;8.00;99.90;;;;;;5056630;28;20040;-75
2022/04/21 01:21:17;;;;;;;20.17;15.57;;;8.10;99.90;;;;;;5057049;28;20037;-74
2022/04/21 01:23:43;;;;;;;19.35;14.60;;;8.00;99.90;;;;;;5056719;28;20045;-78
2022/04/21 01:26:11;;;;;;;20.05;15.02;;;8.00;99.90;;;;;;5056659;28;20053;-76
2022/04/21 01:28:37;;;;;;;19.90;14.43;;;8.00;99.90;;;;;;5056890;28;20398;-75
2022/04/21 01:31:02;;;;;;;25.33;17.25;;;8.00;99.90;;;;;;5057176;28;20132;-76
2022/04/21 01:33:28;;;;;;;20.63;14.52;;;8.00;99.90;;;;;;5056113;28;20052;-75
2022/04/21 01:35:53;;;;;;;23.90;15.30;;;8.00;99.90;;;;;;5056631;28;20123;-75
2022/04/21 01:41:09;;;;;;;22.33;15.80;;;8.00;99.90;;;;;;5056643;28;20048;-75
2022/04/21 01:43:37;;;;;;;23.92;16.05;;;8.00;99.90;;;;;;5035453;28;20307;-74
2022/04/21 01:46:03;;;;;;;23.63;15.35;;;8.00;99.90;;;;;;5019591;28;20116;-74
2022/04/21 01:48:29;;;;;;;21.48;15.00;;;8.00;99.90;;;;;;5036401;28;20116;-76
2022/04/21 01:50:55;;;;;;;25.15;15.93;;;8.00;99.90;;;;;;5036369;28;20482;-75
2022/04/21 01:53:21;;;;;;;26.02;16.58;;;8.00;99.90;;;;;;5052229;28;20105;-75
2022/04/21 01:55:47;;;;;;;25.35;17.15;;;8.00;99.90;;;;;;5038491;28;20061;-73
2022/04/21 01:58:13;;;;;;;24.77;16.08;;;8.00;99.90;;;;;;5056143;28;20040;-74
2022/04/21 02:00:40;;;;;;;24.63;15.90;;;8.00;99.90;;;;;;5055947;28;20443;-77
2022/04/21 02:03:06;;;;;;;25.40;17.88;;;8.00;99.90;;;;;;5055971;28;20056;-75
2022/04/21 02:05:31;;;;;;;22.70;17.73;;;7.90;99.90;;;;;;5055978;28;20370;-78
2022/04/21 02:07:57;;;;;;;21.42;16.48;;;7.90;99.90;;;;;;5056163;28;20041;-75
2022/04/21 02:10:23;;;;;;;23.95;16.77;;;8.00;99.90;;;;;;5055956;28;20041;-75
2022/04/21 02:12:48;;;;;;;26.05;17.83;;;7.90;99.90;;;;;;5055965;28;20118;-76
2022/04/21 02:15:17;;;;;;;20.95;15.82;;;7.90;99.90;;;;;;5056040;28;20090;-76
2022/04/21 02:17:44;;;;;;;21.30;16.25;;;7.90;99.90;;;;;;5055883;28;20063;-76
2022/04/21 02:20:14;;;;;;;23.35;16.50;;;7.90;99.90;;;;;;5038450;28;20060;-74
2022/04/21 02:22:40;;;;;;;24.50;17.05;;;7.90;99.90;;;;;;5034795;28;20521;-77
2022/04/21 02:25:08;;;;;;;21.80;16.73;;;7.90;99.90;;;;;;5019060;28;20061;-77
2022/04/21 02:27:35;;;;;;;28.73;18.30;;;7.90;99.90;;;;;;5036053;28;20041;-75
2022/04/21 02:30:00;;;;;;;22.05;16.73;;;7.80;99.90;;;;;;5051078;28;20133;-74
2022/04/21 02:32:26;;;;;;;24.25;16.92;;;7.80;99.90;;;;;;5038278;28;20439;-76
2022/04/21 02:34:53;;;;;;;24.65;16.92;;;7.80;99.90;;;;;;5055620;28;20041;-79
2022/04/21 02:37:21;;;;;;;25.38;17.73;;;7.80;99.90;;;;;;5037724;28;20045;-78
2022/04/21 02:39:47;;;;;;;24.42;17.90;;;7.80;99.90;;;;;;5034211;28;20041;-77
2022/04/21 02:42:13;;;;;;;21.95;17.75;;;7.80;99.90;;;;;;5035778;28;20114;-77
2022/04/21 02:44:38;;;;;;;27.13;18.23;;;7.80;99.90;;;;;;5017066;28;20049;-76
2022/04/21 02:47:06;;;;;;;23.52;17.42;;;7.80;99.90;;;;;;5035335;28;20136;-75
2022/04/21 02:49:32;;;;;;;23.27;17.25;;;7.80;99.90;;;;;;5046383;28;20102;-76
2022/04/21 02:51:58;;;;;;;25.30;17.80;;;7.80;99.90;;;;;;5055160;28;20439;-75
2022/04/21 02:57:20;;;;;;;25.23;17.80;;;7.70;99.90;;;;;;5055132;28;20041;-76
2022/04/21 03:00:00;;;;;;;24.05;17.42;;;7.70;99.90;;;;;;5055067;28;20055;-76
2022/04/21 03:02:26;;;;;;;28.52;18.35;;;7.70;99.90;;;;;;5055257;28;20348;-75
2022/04/21 03:04:52;;;;;;;25.88;17.20;;;7.70;99.90;;;;;;5055381;28;20041;-75
2022/04/21 03:07:22;;;;;;;24.73;18.25;;;7.70;99.90;;;;;;5054946;28;20449;-76
2022/04/21 03:09:53;;;;;;;27.30;17.88;;;7.70;99.90;;;;;;5054771;28;20389;-74
2022/04/21 03:12:21;;;;;;;25.50;18.17;;;7.60;99.90;;;;;;5037800;28;20351;-77
2022/04/21 03:14:49;;;;;;;25.27;17.67;;;7.60;99.90;;;;;;5054977;28;20051;-76
2022/04/21 03:17:15;;;;;;;24.05;17.77;;;7.60;99.90;;;;;;5054609;28;20037;-74
2022/04/21 03:19:40;;;;;;;23.25;17.52;;;7.60;99.90;;;;;;5055130;28;20063;-74
2022/04/21 03:24:53;;;;;;;22.95;17.73;;;7.50;99.90;;;;;;5055006;28;20335;-75
2022/04/21 03:27:19;;;;;;;24.90;18.33;;;7.50;99.90;;;;;;5051406;28;20037;-74
2022/04/21 03:29:44;;;;;;;25.33;17.40;;;7.50;99.90;;;;;;5054636;28;20045;-76
2022/04/21 03:32:13;;;;;;;22.15;17.33;;;7.50;99.90;;;;;;5055221;28;20075;-74
2022/04/21 03:34:42;;;;;;;23.85;16.95;;;7.50;99.90;;;;;;5054864;28;20045;-76
2022/04/21 03:37:10;;;;;;;26.52;17.80;;;7.40;99.90;;;;;;5034884;28;20084;-77
2022/04/21 03:39:37;;;;;;;23.23;17.40;;;7.50;99.90;;;;;;5037596;28;20045;-76
2022/04/21 03:42:07;;;;;;;23.35;17.90;;;7.40;99.90;;;;;;5054685;28;20123;-75
2022/04/21 03:44:39;;;;;;;26.77;18.10;;;7.40;99.90;;;;;;5054655;28;20044;-75
2022/04/21 03:47:06;;;;;;;23.58;17.50;;;7.40;99.90;;;;;;5054252;28;20055;-75
2022/04/21 03:49:31;;;;;;;30.38;18.65;;;7.40;99.90;;;;;;5037066;28;20084;-74
2022/04/21 03:51:57;;;;;;;28.85;18.40;;;7.40;99.90;;;;;;5054626;28;20443;-74
2022/04/21 03:54:24;;;;;;;24.40;17.08;;;7.40;99.90;;;;;;5054876;28;20454;-76
2022/04/21 03:56:50;;;;;;;24.58;17.48;;;7.40;99.90;;;;;;5039473;28;20037;-74
2022/04/21 03:59:20;;;;;;;25.40;17.20;;;7.30;99.90;;;;;;5058639;28;20045;-75
2022/04/21 04:01:45;;;;;;;23.67;17.13;;;7.40;99.90;;;;;;5058601;28;20044;-74
2022/04/21 04:04:11;;;;;;;26.48;17.83;;;7.30;99.90;;;;;;5058086;28;20461;-75
2022/04/21 04:12:07;;;;;;;24.60;18.45;;;7.30;99.90;;;;;;5058299;28;20083;-75
2022/04/21 04:14:32;;;;;;;22.58;17.27;;;7.30;99.90;;;;;;5054622;28;20041;-77
2022/04/21 04:16:58;;;;;;;22.08;15.90;;;7.30;99.90;;;;;;5057917;28;20048;-74
2022/04/21 04:19:24;;;;;;;21.73;15.85;;;7.30;99.90;;;;;;5057910;28;20119;-75
2022/04/21 04:21:49;;;;;;;21.45;15.88;;;7.20;99.90;;;;;;5058451;28;20037;-74
2022/04/21 04:24:15;;;;;;;22.10;16.35;;;7.20;99.90;;;;;;5058311;28;20040;-74
2022/04/21 04:26:41;;;;;;;21.58;16.15;;;7.20;99.90;;;;;;5058352;28;20037;-72
2022/04/21 04:29:06;;;;;;;20.48;15.30;;;7.20;99.90;;;;;;5057220;28;20041;-75
2022/04/21 04:31:33;;;;;;;23.45;15.65;;;7.20;99.90;;;;;;5058328;28;20057;-74
2022/04/21 04:33:59;;;;;;;24.15;16.02;;;7.20;99.90;;;;;;5057866;28;20182;-78
2022/04/21 04:36:25;;;;;;;22.08;15.52;;;7.20;99.90;;;;;;5040688;28;20383;-77
2022/04/21 04:38:50;;;;;;;19.60;15.32;;;7.20;99.90;;;;;;5039876;28;20033;-74
2022/04/21 04:44:02;;;;;;;21.73;15.77;;;7.10;99.90;;;;;;5057576;28;20052;-74
2022/04/21 04:46:37;;;;;;;21.98;14.90;;;7.10;99.90;;;;;;5057694;28;20052;-75
2022/04/21 04:49:05;;;;;;;19.98;14.90;;;7.10;99.90;;;;;;5057544;28;20094;-74
2022/04/21 04:51:31;;;;;;;21.50;15.27;;;7.10;99.90;;;;;;5057531;28;20116;-76
2022/04/21 04:53:57;;;;;;;18.85;14.73;;;7.10;99.90;;;;;;5057029;28;20377;-75
2022/04/21 04:56:23;;;;;;;23.23;14.95;;;7.10;99.90;;;;;;5039939;28;20421;-76
2022/04/21 04:58:49;;;;;;;20.98;14.57;;;7.20;99.90;;;;;;5057241;28;20076;-76
2022/04/21 05:01:29;;;;;;;21.40;15.50;;;7.20;99.90;;;;;;5039415;28;20142;-76
2022/04/21 05:04:09;;;;;;;19.50;13.55;;;7.20;99.90;;;;;;5039530;28;20051;-74
2022/04/21 05:06:40;;;;;;;22.10;15.00;;;7.20;99.90;;;;;;5056913;28;20080;-73
2022/04/21 05:09:09;;;;;;;16.95;13.88;;;7.20;99.90;;;;;;5056431;28;20119;-73
2022/04/21 05:11:35;;;;;;;19.92;14.27;;;7.20;99.90;;;;;;5057293;28;20044;-73
2022/04/21 05:14:03;;;;;;;20.65;14.25;;;7.20;99.90;;;;;;5056832;28;20037;-74
2022/04/21 05:16:29;;;;;;;18.20;13.70;;;7.20;99.90;;;;;;5056642;28;20049;-74
2022/04/21 05:18:58;;;;;;;19.40;14.60;;;7.20;99.90;;;;;;5056814;28;20040;-72
2022/04/21 05:21:24;;;;;;;18.92;14.13;;;7.20;99.90;;;;;;5056906;28;20033;-73
2022/04/21 05:23:56;;;;;;;18.80;13.80;;;7.20;99.90;;;;;;5056788;28;20450;-73
2022/04/21 05:26:22;;;;;;;18.65;13.65;;;7.30;99.90;;;;;;5056390;28;20075;-72
2022/04/21 05:28:48;;;;;;;18.33;12.65;;;7.30;99.90;;;;;;5056680;28;20435;-74
2022/04/21 05:31:14;;;;;;;17.63;12.75;;;7.30;99.90;;;;;;5056807;28;20063;-73
2022/04/21 05:33:40;;;;;;;15.90;12.52;;;7.40;99.90;;;;;;5053314;28;20049;-71
2022/04/21 05:36:06;;;;;;;19.20;13.52;;;7.40;99.90;;;;;;5053473;28;20135;-72
2022/04/21 05:38:33;;;;;;;19.08;13.13;;;7.40;99.90;;;;;;5032131;28;20045;-72
2022/04/21 05:40:59;;;;;;;16.73;13.23;;;7.40;99.90;;;;;;5036660;28;20053;-72
2022/04/21 05:43:33;;;;;;;15.93;12.60;;;7.50;99.90;;;;;;5033515;28;20352;-73
2022/04/21 05:45:59;;;;;;;18.90;12.98;;;7.50;99.90;;;;;;5044074;28;20113;-72
2022/04/21 05:48:25;;;;;;;16.85;12.68;;;7.50;99.90;;;;;;5052852;28;20467;-72
2022/04/21 05:50:53;;;;;;;16.13;12.48;;;7.50;99.90;;;;;;5056341;28;20033;-72
2022/04/21 05:53:23;;;;;;;16.20;12.40;;;7.60;99.90;;;;;;5056192;28;20045;-75
2022/04/21 05:55:50;;;;;;;18.00;12.27;;;7.60;99.90;;;;;;5055890;28;20060;-75
2022/04/21 05:58:16;;;;;;;17.77;12.30;;;7.70;99.90;;;;;;5055985;28;20041;-74
2022/04/21 06:00:42;;;;;;;19.67;14.05;;;7.70;99.90;;;;;;5056307;28;20052;-73
2022/04/21 06:03:08;;;;;;;16.40;12.23;;;7.80;99.90;;;;;;5056063;28;20040;-73
2022/04/21 06:05:33;;;;;;;15.93;12.88;;;7.80;99.90;;;;;;5056145;28;20036;-74
2022/04/21 06:07:59;;;;;;;19.10;11.90;;;7.90;99.90;;;;;;5056441;28;20036;-72
2022/04/21 06:10:25;;;;;;;17.30;12.23;;;7.90;99.90;;;;;;5056238;28;20044;-72
2022/04/21 06:12:50;;;;;;;16.10;11.73;;;8.00;99.90;;;;;;5056323;28;20040;-73
2022/04/21 06:15:16;;;;;;;15.52;12.60;;;8.00;99.90;;;;;;5038428;28;20103;-74
2022/04/21 06:17:42;;;;;;;17.38;12.15;;;8.10;99.90;;;;;;5055753;28;20049;-72
2022/04/21 06:20:09;;;;;;;15.25;12.65;;;8.10;99.90;;;;;;5055577;28;20033;-72
2022/04/21 06:22:35;;;;;;;19.73;12.43;;;8.20;99.90;;;;;;5055930;28;20073;-73
2022/04/21 06:25:01;;;;;;;15.02;11.48;;;8.20;99.90;;;;;;5055735;28;20076;-75
2022/04/21 06:27:26;;;;;;;16.85;12.20;;;8.30;99.90;;;;;;5055504;28;20345;-75
2022/04/21 06:29:52;;;;;;;16.27;11.25;;;8.30;99.90;;;;;;5055387;28;20061;-74
2022/04/21 06:32:18;;;;;;;14.60;11.90;;;8.40;99.90;;;;;;5055123;28;20041;-74
2022/04/21 06:34:44;;;;;;;14.27;11.25;;;8.50;99.90;;;;;;5055780;28;20045;-74
2022/04/21 06:37:09;;;;;;;15.90;11.65;;;8.60;99.90;;;;;;5055139;28;20044;-73
2022/04/21 06:39:35;;;;;;;14.73;11.40;;;8.70;99.90;;;;;;5055316;28;20029;-73
2022/04/21 06:42:01;;;;;;;14.90;11.40;;;8.80;99.90;;;;;;5038263;28;20105;-72
2022/04/21 06:49:54;;;;;;;12.88;10.93;;;9.10;99.90;;;;;;5055355;28;20084;-74
2022/04/21 06:52:20;;;;;;;15.63;11.25;;;9.30;99.90;;;;;;5037920;28;20040;-73
2022/04/21 06:54:47;;;;;;;13.63;10.80;;;9.40;99.90;;;;;;5055110;28;20045;-73
2022/04/21 06:57:13;;;;;;;15.88;10.70;;;9.50;99.90;;;;;;5054447;28;20052;-71
2022/04/21 06:59:39;;;;;;;12.00;10.18;;;9.60;99.90;;;;;;5055419;28;20443;-72
2022/04/21 07:02:05;;;;;;;13.73;10.20;;;9.70;99.90;;;;;;5055162;28;20052;-75
2022/04/21 07:04:31;;;;;;;12.75;10.07;;;9.90;99.90;;;;;;5054677;28;20037;-73
2022/04/21 07:06:56;;;;;;;14.85;10.02;;;9.90;99.90;;;;;;5054960;28;20450;-74
2022/04/21 07:09:22;;;;;;;14.80;9.88;;;10.00;99.90;;;;;;5055179;28;20036;-72
2022/04/21 07:11:48;;;;;;;13.68;10.30;;;10.20;99.90;;;;;;5037158;28;20051;-73
2022/04/21 07:14:13;;;;;;;15.88;10.18;;;10.30;99.90;;;;;;5054545;28;20033;-73
2022/04/21 07:16:39;;;;;;;11.70;8.85;;;10.40;99.90;;;;;;5054645;28;20044;-72
2022/04/21 07:19:04;;;;;;;11.00;8.70;;;10.50;99.90;;;;;;5054367;28;20132;-73
2022/04/21 07:21:30;;;;;;;10.23;8.25;;;10.70;99.90;;;;;;5054501;28;20084;-71
2022/04/21 07:23:56;;;;;;;12.20;8.27;;;10.70;99.90;;;;;;5054194;28;20091;-73
2022/04/21 07:26:21;;;;;;;11.00;7.88;;;10.80;99.90;;;;;;5054593;28;20052;-73
2022/04/21 07:28:47;;;;;;;10.63;7.70;;;10.90;99.90;;;;;;5054676;28;20129;-72
2022/04/21 07:31:13;;;;;;;12.05;7.50;;;11.00;99.90;;;;;;5048946;28;20128;-71
2022/04/21 07:33:38;;;;;;;9.43;7.07;;;11.10;99.90;;;;;;5054167;28;20439;-74
2022/04/21 07:36:04;;;;;;;9.32;6.82;;;11.20;99.90;;;;;;5054472;28;20041;-73
2022/04/21 07:38:31;;;;;;;8.25;6.18;;;11.30;99.90;;;;;;5037058;28;20044;-72
2022/04/21 07:40:57;;;;;;;8.70;6.97;;;11.30;99.90;;;;;;5054507;28;20056;-71
2022/04/21 07:43:23;;;;;;;9.75;6.68;;;11.40;99.90;;;;;;5054218;28;20091;-73
2022/04/21 07:45:49;;;;;;;12.88;6.65;;;11.50;99.90;;;;;;5054578;28;20068;-72
2022/04/21 07:48:15;;;;;;;10.05;6.10;;;11.60;99.90;;;;;;5054619;28;20041;-71
2022/04/21 07:50:41;;;;;;;9.73;6.20;;;11.60;99.90;;;;;;5053920;28;20041;-71
2022/04/21 07:53:16;;;;;;;7.70;5.50;;;11.70;99.90;;;;;;5053453;28;20048;-72
2022/04/21 07:55:44;;;;;;;9.25;5.32;;;11.80;99.90;;;;;;5054180;28;20067;-74
2022/04/21 07:58:10;;;;;;;6.68;4.93;;;11.90;99.90;;;;;;5054092;28;20512;-71
2022/04/21 08:00:38;;;;;;;7.05;4.95;;;12.00;99.90;;;;;;5054357;28;20041;-77
2022/04/21 08:03:05;;;;;;;10.70;5.53;;;12.10;99.90;;;;;;5050492;28;20041;-72
2022/04/21 08:05:31;;;;;;;6.20;4.72;;;12.10;99.90;;;;;;5034624;28;20038;-70
2022/04/21 08:07:58;;;;;;;10.48;4.82;;;12.20;99.90;;;;;;5034466;28;20112;-71
2022/04/21 08:10:25;;;;;;;6.32;5.00;;;12.30;99.90;;;;;;5034274;28;20079;-72
2022/04/21 08:12:52;;;;;;;7.13;4.30;;;12.30;99.90;;;;;;5033090;28;20041;-71
2022/04/21 08:15:22;;;;;;;7.30;4.80;;;12.40;99.90;;;;;;5034562;28;20068;-71
2022/04/21 08:17:47;;;;;;;7.82;4.30;;;12.40;99.90;;;;;;5034260;28;20120;-71
2022/04/21 08:20:13;;;;;;;7.47;4.90;;;12.50;99.90;;;;;;5034233;28;20124;-71
2022/04/21 08:22:39;;;;;;;5.40;4.32;;;12.50;99.90;;;;;;5051091;28;20359;-72
2022/04/21 08:33:19;;;;;;;5.70;4.22;;;12.60;99.90;;;;;;5025795;28;20136;-73
2022/04/21 08:35:46;;;;;;;5.15;4.18;;;12.70;99.90;;;;;;5054173;28;20075;-74
2022/04/21 08:38:12;;;;;;;6.07;4.35;;;12.70;99.90;;;;;;5036654;28;20052;-75
2022/04/21 08:40:51;;;;;;;10.27;5.22;;;12.70;99.90;;;;;;5054034;28;20036;-75
2022/04/21 08:43:17;;;;;;;5.25;4.00;;;12.70;99.90;;;;;;5055588;28;20036;-75
2022/04/21 08:45:44;;;;;;;5.25;3.95;;;12.80;99.90;;;;;;5039565;28;20142;-72
2022/04/21 08:48:15;;;;;;;5.35;4.53;;;12.80;99.90;;;;;;5057661;28;20041;-74
2022/04/21 08:50:41;;;;;;;5.20;3.97;;;12.90;99.90;;;;;;5040039;28;20063;-73
2022/04/21 08:53:08;;;;;;;5.28;4.10;;;12.90;99.90;;;;;;5056861;28;20446;-73
2022/04/21 08:55:34;;;;;;;5.53;4.15;;;12.90;99.90;;;;;;5057279;28;20052;-73
2022/04/21 08:58:00;;;;;;;8.02;3.97;;;12.90;99.90;;;;;;5040133;28;20505;-74
2022/04/21 09:00:26;;;;;;;5.93;4.07;;;12.90;99.90;;;;;;5057425;28;20128;-72
2022/04/21 09:02:53;;;;;;;6.68;4.10;;;13.00;99.90;;;;;;5057152;28;20398;-72
2022/04/21 09:05:22;;;;;;;5.20;4.15;;;13.00;99.90;;;;;;5057120;28;20115;-73
2022/04/21 09:07:51;;;;;;;5.55;4.00;;;13.00;99.90;;;;;;5057125;28;20041;-72
2022/04/21 09:10:18;;;;;;;4.95;3.70;;;13.10;99.90;;;;;;5057382;28;20132;-74
2022/04/21 09:12:46;;;;;;;3.80;3.28;;;13.10;99.90;;;;;;5056987;28;20029;-74
2022/04/21 09:15:14;;;;;;;5.22;3.22;;;13.20;99.90;;;;;;5057071;28;20059;-74
2022/04/21 09:17:43;;;;;;;4.93;3.28;;;13.20;99.90;;;;;;5039540;28;20470;-72
2022/04/21 09:20:09;;;;;;;5.28;3.80;;;13.20;99.90;;;;;;5057025;28;20119;-73
2022/04/21 09:22:41;;;;;;;5.63;3.67;;;13.30;99.90;;;;;;5056784;28;20385;-74
2022/04/21 09:25:07;;;;;;;5.43;3.55;;;13.30;99.90;;;;;;5056937;28;20042;-72
2022/04/21 09:27:44;;;;;;;5.20;3.78;;;13.40;99.90;;;;;;5056695;28;20052;-73
2022/04/21 09:30:12;;;;;;;5.28;3.80;;;13.30;99.90;;;;;;5043057;28;20045;-73
2022/04/21 09:32:48;;;;;;;7.18;4.38;;;13.40;99.90;;;;;;5056341;28;20083;-73
2022/04/21 09:35:14;;;;;;;5.63;3.80;;;13.50;99.90;;;;;;5056519;28;20025;-74
2022/04/21 09:37:52;;;;;;;4.63;3.92;;;13.50;99.90;;;;;;5056321;28;20041;-73
2022/04/21 09:40:19;;;;;;;7.00;4.10;;;13.50;99.90;;;;;;5056603;28;20067;-72
2022/04/21 09:42:53;;;;;;;5.82;3.85;;;13.60;99.90;;;;;;5056289;28;20041;-73
2022/04/21 09:48:15;;;;;;;5.80;4.00;;;13.60;99.90;;;;;;5056087;28;20359;-71
2022/04/21 09:50:42;;;;;;;5.35;4.03;;;13.70;99.90;;;;;;5056460;28;20048;-73
2022/04/21 09:53:08;;;;;;;5.50;4.15;;;13.70;99.90;;;;;;5055889;28;20055;-73
2022/04/21 09:55:34;;;;;;;6.22;3.97;;;13.80;99.90;;;;;;5056365;28;20036;-72
2022/04/21 09:58:08;;;;;;;5.68;4.68;;;13.80;99.90;;;;;;5056290;28;20041;-76
2022/04/21 10:00:35;;;;;;;5.88;4.53;;;13.80;99.90;;;;;;5056394;28;20045;-72
2022/04/21 10:03:02;;;;;;;9.02;4.47;;;13.90;99.90;;;;;;5055835;28;20069;-73
2022/04/21 10:05:31;;;;;;;6.70;5.15;;;14.00;99.90;;;;;;5056243;28;20041;-72
2022/04/21 10:08:00;;;;;;;7.30;4.30;;;14.00;99.90;;;;;;5055582;28;20037;-72
2022/04/21 10:10:28;;;;;;;6.13;4.55;;;14.00;99.90;;;;;;5055570;28;20045;-75
2022/04/21 10:12:55;;;;;;;7.90;4.72;;;14.10;99.90;;;;;;5055940;28;20125;-72
2022/04/21 10:15:21;;;;;;;7.40;4.80;;;14.10;99.90;;;;;;5056018;28;20044;-73
2022/04/21 10:17:46;;;;;;;4.97;4.15;;;14.20;99.90;;;;;;5054253;28;20458;-71
2022/04/21 10:20:12;;;;;;;7.78;4.57;;;14.30;99.90;;;;;;5055781;28;20044;-73
2022/04/21 10:22:38;;;;;;;5.45;4.35;;;14.30;99.90;;;;;;5055693;28;20439;-74
2022/04/21 10:25:06;;;;;;;6.57;4.63;;;14.30;99.90;;;;;;5055513;28;20458;-73
2022/04/21 10:27:38;;;;;;;6.90;4.65;;;14.40;99.90;;;;;;5057867;28;20044;-72
2022/04/21 10:30:14;;;;;;;6.00;5.05;;;14.40;99.90;;;;;;5055376;28;20127;-72
2022/04/21 10:32:46;;;;;;;8.15;4.93;;;14.50;99.90;;;;;;5055634;28;20049;-73
2022/04/21 10:35:18;;;;;;;6.78;4.40;;;14.50;99.90;;;;;;5055671;28;20370;-72
2022/04/21 10:37:44;;;;;;;5.22;4.60;;;14.60;99.90;;;;;;5055326;28;20032;-72
2022/04/21 10:40:11;;;;;;;6.25;5.18;;;14.60;99.90;;;;;;5055483;28;20108;-73
2022/04/21 10:42:52;;;;;;;8.65;4.43;;;14.60;99.90;;;;;;5055441;28;20060;-73
2022/04/21 10:45:33;;;;;;;8.63;4.70;;;14.70;99.90;;;;;;5054900;28;20443;-71
2022/04/21 10:48:09;;;;;;;6.15;4.55;;;14.70;99.90;;;;;;5037578;28;20076;-72
2022/04/21 10:50:40;;;;;;;8.15;4.30;;;14.80;99.90;;;;;;5055401;28;20042;-73
2022/04/21 10:58:38;;;;;;;5.30;4.03;;;14.70;99.90;;;;;;5054765;28;20048;-74
2022/04/21 11:01:07;;;;;;;5.78;4.53;;;14.70;99.90;;;;;;5054983;28;20029;-75
2022/04/21 11:03:33;;;;;;;4.38;3.85;;;14.80;99.90;;;;;;5055116;28;20439;-73
2022/04/21 11:06:05;;;;;;;8.27;4.63;;;14.90;99.90;;;;;;5054156;28;20047;-73
2022/04/21 11:08:32;;;;;;;7.63;4.45;;;14.90;99.90;;;;;;5055059;28;20355;-74
2022/04/21 11:10:58;;;;;;;6.22;4.80;;;14.90;99.90;;;;;;5037433;28;20047;-72
2022/04/21 11:13:40;;;;;;;4.90;4.25;;;14.90;99.90;;;;;;5055161;28;20337;-73
2022/04/21 11:16:06;;;;;;;7.90;5.30;;;15.10;99.90;;;;;;5054728;28;20037;-74
2022/04/21 11:18:32;;;;;;;7.07;5.28;;;15.10;99.90;;;;;;5054263;28;20045;-72
2022/04/21 11:21:24;;;;;;;6.90;5.03;;;15.10;99.90;;;;;;5054958;28;20339;-75
2022/04/21 11:23:49;;;;;;;9.38;5.13;;;15.10;99.90;;;;;;5054953;28;20037;-73
2022/04/21 11:26:15;;;;;;;6.47;5.03;;;15.10;99.90;;;;;;5054726;28;20047;-73
2022/04/21 11:28:45;;;;;;;6.75;5.25;;;15.10;99.90;;;;;;5054348;28;20443;-73
2022/04/21 11:31:12;;;;;;;6.90;5.10;;;15.20;99.90;;;;;;5054612;28;20045;-74
2022/04/21 11:33:44;;;;;;;10.85;4.75;;;15.20;99.90;;;;;;5054896;28;20041;-72
2022/04/21 11:36:11;;;;;;;7.03;5.18;;;15.30;99.90;;;;;;5054544;28;20041;-74
2022/04/21 11:38:52;;;;;;;7.38;4.80;;;15.30;99.90;;;;;;5054373;28;20086;-72
2022/04/21 11:41:17;;;;;;;9.48;4.43;;;15.40;99.90;;;;;;5055061;28;20045;-76
2022/04/21 11:43:49;;;;;;;5.63;4.95;;;15.30;99.90;;;;;;5054725;28;20044;-74
2022/04/21 11:46:18;;;;;;;7.05;4.50;;;15.30;99.90;;;;;;5054459;28;20041;-72
2022/04/21 11:48:43;;;;;;;5.28;4.25;;;15.40;99.90;;;;;;5054379;28;20415;-72
2022/04/21 11:51:11;;;;;;;6.50;4.25;;;15.50;99.90;;;;;;5054547;28;20055;-73
2022/04/21 11:53:40;;;;;;;6.95;4.68;;;15.50;99.90;;;;;;5054627;28;20075;-72
2022/04/21 11:56:07;;;;;;;8.07;4.57;;;15.60;99.90;;;;;;5054628;28;20354;-73
2022/04/21 11:58:40;;;;;;;9.10;4.40;;;15.60;99.90;;;;;;5053720;28;20045;-74
2022/04/21 12:06:50;;;;;;;6.07;4.30;;;15.70;99.90;;;;;;5054546;28;20402;-73
2022/04/21 12:09:18;;;;;;;6.38;4.50;;;15.80;99.90;;;;;;5053990;28;20458;-74
2022/04/21 12:11:51;;;;;;;7.82;4.60;;;15.80;99.90;;;;;;5036484;28;20103;-72
2022/04/21 12:14:17;;;;;;;8.50;4.90;;;15.90;99.90;;;;;;5054271;28;20037;-74
2022/04/21 12:16:52;;;;;;;7.97;5.25;;;15.90;99.90;;;;;;5055251;28;20431;-74
2022/04/21 12:19:19;;;;;;;8.00;4.95;;;16.00;99.90;;;;;;5057624;28;20462;-74
2022/04/21 12:21:55;;;;;;;5.65;4.80;;;16.00;99.90;;;;;;5057913;28;20037;-73
2022/04/21 12:24:29;;;;;;;8.57;4.78;;;16.10;99.90;;;;;;5058195;28;20098;-74
2022/04/21 12:26:54;;;;;;;7.00;4.55;;;16.10;99.90;;;;;;5057496;28;20355;-74
2022/04/21 12:29:22;;;;;;;9.93;6.03;;;16.20;99.90;;;;;;5057758;28;20033;-71
2022/04/21 12:31:52;;;;;;;8.35;5.40;;;16.20;99.90;;;;;;5045592;28;20111;-72
2022/04/21 12:34:24;;;;;;;6.47;4.20;;;16.30;99.90;;;;;;5020492;28;20092;-73
2022/04/21 12:37:00;;;;;;;9.60;4.65;;;16.40;99.90;;;;;;5038097;28;20452;-74
2022/04/21 12:39:28;;;;;;;11.52;4.95;;;16.60;99.90;;;;;;5037817;28;20037;-73
2022/04/21 12:41:55;;;;;;;5.60;4.47;;;16.70;99.90;;;;;;5050256;28;20037;-71
2022/04/21 12:44:25;;;;;;;11.70;5.53;;;16.80;99.90;;;;;;5057695;28;20033;-72
2022/04/21 12:46:57;;;;;;;7.88;4.38;;;16.90;99.90;;;;;;5057596;28;20048;-72
2022/04/21 12:49:34;;;;;;;8.30;4.47;;;17.10;99.90;;;;;;5057545;28;20091;-71
2022/04/21 12:52:00;;;;;;;7.40;4.60;;;17.20;99.90;;;;;;5057420;28;20116;-73
2022/04/21 12:54:26;;;;;;;6.68;4.80;;;17.50;99.90;;;;;;5057595;28;20127;-71
2022/04/21 12:56:55;;;;;;;6.63;4.13;;;17.70;99.90;;;;;;5057584;28;20044;-73
2022/04/21 12:59:20;;;;;;;8.02;4.53;;;18.10;99.90;;;;;;5039662;28;20106;-71
2022/04/21 13:01:46;;;;;;;5.93;4.50;;;18.30;99.90;;;;;;5057129;28;20049;-72
2022/04/21 13:04:11;;;;;;;6.03;4.50;;;18.80;99.90;;;;;;5056193;28;20450;-71
2022/04/21 13:06:37;;;;;;;7.75;4.38;;;19.30;99.90;;;;;;5056584;28;20335;-73
2022/04/21 13:09:02;;;;;;;6.47;4.65;;;19.70;99.90;;;;;;5039246;28;20048;-73
2022/04/21 13:11:28;;;;;;;8.30;4.68;;;20.30;99.90;;;;;;5056739;28;20087;-72
2022/04/21 13:13:54;;;;;;;5.30;3.92;;;20.70;99.50;;;;;;5039512;28;20067;-72
2022/04/21 13:16:20;;;;;;;4.38;3.97;;;21.00;98.40;;;;;;5057063;28;20034;-74
2022/04/21 13:18:45;;;;;;;6.05;4.05;;;21.40;96.20;;;;;;5057039;28;20048;-74
2022/04/21 13:23:55;;;;;;;;;;;21.30;95.90;;;;;;5057103;28;20048;-73
2022/04/21 13:26:24;;;;;;;4.47;4.00;;;21.30;94.20;;;;;;5039638;28;19920;-72
2022/04/21 13:28:49;;;;;;;7.78;4.53;;;21.70;97.00;;;;;;5055982;28;20052;-75
2022/04/21 13:34:00;;;;;;;5.32;3.80;;;22.70;93.50;;;;;;5055980;28;20140;-75
2022/04/21 13:36:25;;;;;;;6.30;4.03;;;23.40;92.10;;;;;;5056604;28;20234;-73
2022/04/21 13:38:51;;;;;;;4.75;3.80;;;23.60;91.00;;;;;;5056412;28;20141;-75